Time;durP1;ratioP1;P1;durP2;ratioP2;P2;SDS_P1;SDS_P2;PMS_P1;PMS_P2;Temp;Humidity;BMP_temperature;BMP_pressure;BME280_temperature;BME280_humidity;BME280_pressure;Samples;Min_cycle;Max_cycle;Signal;HPM_P1;HPM_P2
2022/01/12 00:00:51;;;;;;;24.65;6.18;;;3.60;99.90;;;;;;5290325;28;20035;-73
2022/01/12 00:03:23;;;;;;;17.17;6.65;;;3.60;99.90;;;;;;5290275;28;20035;-73
2022/01/12 00:05:53;;;;;;;19.35;6.22;;;3.60;99.90;;;;;;5290278;28;20120;-73
2022/01/12 00:08:25;;;;;;;10.45;5.53;;;3.60;99.90;;;;;;5289518;28;20450;-73
2022/01/12 00:10:56;;;;;;;16.20;6.20;;;3.70;99.90;;;;;;5290246;28;20051;-72
2022/01/12 00:13:27;;;;;;;21.30;6.10;;;3.60;99.90;;;;;;5290455;28;20027;-73
2022/01/12 00:15:58;;;;;;;11.05;5.20;;;3.50;99.90;;;;;;5290116;28;20503;-73
2022/01/12 00:18:30;;;;;;;17.92;5.07;;;3.40;99.90;;;;;;5290582;28;20024;-73
2022/01/12 00:21:02;;;;;;;12.45;5.10;;;3.30;99.90;;;;;;5289913;28;20028;-73
2022/01/12 00:23:33;;;;;;;13.32;5.32;;;3.40;99.90;;;;;;5288698;28;20052;-73
2022/01/12 00:26:11;;;;;;;17.40;5.45;;;3.40;99.90;;;;;;5290023;28;20064;-73
2022/01/12 00:34:33;;;;;;;18.35;7.35;;;3.30;99.90;;;;;;5266554;28;20071;-73
2022/01/12 00:37:04;;;;;;;26.08;7.32;;;3.30;99.90;;;;;;5290192;28;20086;-73
2022/01/12 00:39:35;;;;;;;18.80;5.80;;;3.30;99.90;;;;;;5290301;28;20020;-73
2022/01/12 00:42:10;;;;;;;18.85;6.22;;;3.20;99.90;;;;;;5289741;28;20034;-72
2022/01/12 00:44:45;;;;;;;16.70;5.75;;;3.30;99.90;;;;;;5290032;28;20466;-73
2022/01/12 00:47:16;;;;;;;14.65;5.50;;;3.20;99.90;;;;;;5289958;28;20012;-72
2022/01/12 00:49:47;;;;;;;21.30;6.40;;;3.10;99.90;;;;;;5289881;28;20444;-73
2022/01/12 00:52:18;;;;;;;17.75;5.20;;;3.20;99.90;;;;;;5293458;28;20404;-73
2022/01/12 00:54:49;;;;;;;15.95;5.93;;;3.10;99.90;;;;;;5293868;28;20046;-73
2022/01/12 00:57:19;;;;;;;22.48;7.18;;;3.10;99.90;;;;;;5293472;28;20405;-73
2022/01/12 00:59:50;;;;;;;22.95;6.03;;;3.00;99.90;;;;;;5293586;28;20027;-73
2022/01/12 01:02:21;;;;;;;16.58;5.78;;;3.10;99.90;;;;;;5293483;28;20023;-72
2022/01/12 01:04:52;;;;;;;17.95;5.63;;;3.10;99.90;;;;;;5293578;28;20035;-73
2022/01/12 01:07:23;;;;;;;21.58;7.13;;;3.10;99.90;;;;;;5291795;28;20509;-73
2022/01/12 01:10:03;;;;;;;18.02;6.75;;;3.10;99.90;;;;;;5293326;28;20387;-73
2022/01/12 01:12:35;;;;;;;15.63;5.85;;;3.10;99.90;;;;;;5292110;28;20032;-73
2022/01/12 01:15:11;;;;;;;14.27;5.25;;;2.90;99.90;;;;;;5292070;28;20023;-73
2022/01/12 01:25:57;;;;;;;18.02;5.30;;;2.90;99.90;;;;;;5293050;28;20414;-72
2022/01/12 01:28:28;;;;;;;22.67;5.63;;;2.90;99.90;;;;;;5292526;28;20055;-73
2022/01/12 01:30:59;;;;;;;11.25;4.85;;;3.10;99.90;;;;;;5293146;28;20023;-73
2022/01/12 01:33:29;;;;;;;13.48;5.05;;;3.00;99.90;;;;;;5291539;28;20032;-73
2022/01/12 01:36:00;;;;;;;18.42;4.93;;;3.00;99.90;;;;;;5292608;28;20111;-73
2022/01/12 01:38:31;;;;;;;17.63;5.13;;;2.80;99.90;;;;;;5292409;28;20016;-72
2022/01/12 01:41:02;;;;;;;17.75;5.38;;;3.00;99.90;;;;;;5292251;28;20475;-73
2022/01/12 01:54:34;;;;;;;17.73;6.60;;;2.90;99.90;;;;;;5292889;28;20024;-73
2022/01/12 01:57:05;;;;;;;18.98;6.15;;;3.00;99.90;;;;;;5292706;28;20043;-73
2022/01/12 01:59:36;;;;;;;17.40;5.57;;;2.80;99.90;;;;;;5292322;28;20455;-73
2022/01/12 02:02:07;;;;;;;13.20;4.95;;;2.70;99.90;;;;;;5291817;28;20034;-72
2022/01/12 02:04:38;;;;;;;13.77;4.85;;;2.80;99.90;;;;;;5292150;28;20386;-73
2022/01/12 02:07:09;;;;;;;20.05;6.15;;;2.80;99.90;;;;;;5292397;28;20051;-73
2022/01/12 02:09:40;;;;;;;16.90;6.57;;;2.70;99.90;;;;;;5291892;28;20051;-74
2022/01/12 02:12:12;;;;;;;19.45;6.60;;;2.70;99.90;;;;;;5291817;28;20020;-73
2022/01/12 02:14:45;;;;;;;22.85;7.05;;;2.50;99.90;;;;;;5292519;28;20020;-73
2022/01/12 02:17:20;;;;;;;17.42;7.20;;;2.60;99.90;;;;;;5292137;28;20032;-72
2022/01/12 02:20:12;;;;;;;11.88;5.82;;;2.60;99.90;;;;;;5292103;28;20386;-73
2022/01/12 02:37:15;;;;;;;20.67;6.93;;;2.50;99.90;;;;;;5291470;28;20394;-73
2022/01/12 02:39:57;;;;;;;16.60;6.50;;;2.60;99.90;;;;;;5291292;28;20107;-73
2022/01/12 02:42:28;;;;;;;13.10;4.80;;;2.40;99.90;;;;;;5291248;28;20024;-73
2022/01/12 02:50:44;;;;;;;15.30;5.55;;;2.30;99.90;;;;;;5291449;28;20039;-73
2022/01/12 02:56:06;;;;;;;19.83;7.03;;;2.30;99.90;;;;;;5290818;28;20085;-74
2022/01/12 02:58:38;;;;;;;16.67;5.82;;;2.30;99.90;;;;;;5290799;28;20094;-73
2022/01/12 03:01:49;;;;;;;21.58;7.07;;;2.40;99.90;;;;;;5290838;28;20039;-74
2022/01/12 03:04:17;;;;;;;22.88;8.48;;;2.50;99.90;;;;;;5290541;28;20019;-73
2022/01/12 03:06:50;;;;;;;20.58;9.35;;;2.40;99.90;;;;;;5291266;28;20035;-73
2022/01/12 03:09:21;;;;;;;28.20;9.52;;;2.40;99.90;;;;;;5291285;27;20460;-73
2022/01/12 03:11:52;;;;;;;24.55;8.40;;;2.40;99.90;;;;;;5290672;28;20058;-73
2022/01/12 03:14:23;;;;;;;20.02;6.88;;;2.30;99.90;;;;;;5290496;28;20020;-73
2022/01/12 03:16:54;;;;;;;19.15;5.80;;;2.30;99.90;;;;;;5290718;28;20044;-73
2022/01/12 03:19:25;;;;;;;23.48;5.53;;;2.40;99.90;;;;;;5291041;28;20485;-73
2022/01/12 03:21:56;;;;;;;14.45;4.22;;;2.40;99.90;;;;;;5291206;28;20023;-73
2022/01/12 03:24:27;;;;;;;15.90;5.40;;;2.30;99.90;;;;;;5290423;28;20051;-73
2022/01/12 03:26:58;;;;;;;17.90;6.13;;;2.30;99.90;;;;;;5290911;28;20028;-73
2022/01/12 03:29:28;;;;;;;18.23;4.90;;;2.10;99.90;;;;;;5290837;28;20023;-73
2022/01/12 03:32:01;;;;;;;15.68;6.88;;;2.20;99.90;;;;;;5291029;28;20024;-73
2022/01/12 03:34:34;;;;;;;14.20;5.10;;;2.10;99.90;;;;;;5290613;28;20055;-73
2022/01/12 03:39:54;;;;;;;12.57;4.65;;;2.20;99.90;;;;;;5290978;28;20106;-73
2022/01/12 03:42:26;;;;;;;11.57;4.22;;;2.20;99.90;;;;;;5289171;28;20463;-73
2022/01/12 03:44:56;;;;;;;13.85;4.68;;;2.10;99.90;;;;;;5290669;28;20016;-73
2022/01/12 06:49:21;;;;;;;13.73;5.15;;;1.20;99.90;;;;;;5318610;27;20389;-77
2022/01/12 06:51:53;;;;;;;18.75;5.80;;;1.20;99.90;;;;;;5316480;27;20084;-78
2022/01/12 06:54:25;;;;;;;20.23;4.97;;;1.00;99.90;;;;;;5323654;27;20019;-76
2022/01/12 06:56:56;;;;;;;18.60;5.40;;;1.10;99.90;;;;;;5314663;27;20027;-78
2022/01/12 06:59:27;;;;;;;29.63;7.10;;;1.10;99.90;;;;;;5317736;27;20022;-79
2022/01/12 07:01:58;;;;;;;17.20;5.63;;;1.00;99.90;;;;;;5311064;27;20097;-78
2022/01/12 07:04:28;;;;;;;18.13;6.88;;;1.10;99.90;;;;;;5323052;27;20033;-78
2022/01/12 07:07:00;;;;;;;24.88;8.10;;;1.10;99.90;;;;;;5329094;27;20461;-78
2022/01/12 07:09:31;;;;;;;25.92;6.57;;;1.20;99.90;;;;;;5301735;27;20027;-77
2022/01/12 07:12:02;;;;;;;34.78;9.77;;;1.30;99.90;;;;;;5285794;28;20036;-77
2022/01/12 07:14:33;;;;;;;30.48;9.60;;;1.20;99.90;;;;;;5287071;28;20053;-77
2022/01/12 07:17:03;;;;;;;20.05;9.25;;;1.10;99.90;;;;;;5297235;28;20028;-78
2022/01/12 07:19:34;;;;;;;65.20;20.35;;;1.10;99.90;;;;;;5305537;28;20035;-78
2022/01/12 07:22:05;;;;;;;40.20;17.27;;;1.20;99.90;;;;;;5307679;27;20110;-77
2022/01/12 07:24:36;;;;;;;37.55;14.15;;;1.20;99.90;;;;;;5306175;28;20027;-78
2022/01/12 07:27:07;;;;;;;46.40;13.75;;;1.20;99.90;;;;;;5307525;27;20480;-78
2022/01/12 07:29:38;;;;;;;30.05;12.77;;;1.30;99.90;;;;;;5307419;27;20486;-77
2022/01/12 07:32:09;;;;;;;33.20;13.85;;;1.30;99.90;;;;;;5292494;27;20028;-77
2022/01/12 07:34:40;;;;;;;49.58;19.60;;;1.30;99.90;;;;;;5286117;28;20030;-77
2022/01/12 07:37:11;;;;;;;42.38;16.15;;;1.10;99.90;;;;;;5285958;28;20035;-78
2022/01/12 07:39:41;;;;;;;49.20;21.85;;;1.30;99.90;;;;;;5290209;28;20034;-78
2022/01/12 07:42:12;;;;;;;36.85;15.52;;;1.10;99.90;;;;;;5284820;28;20031;-77
2022/01/12 07:44:43;;;;;;;28.67;11.88;;;1.10;99.90;;;;;;5285779;28;20024;-77
2022/01/12 07:47:14;;;;;;;38.17;15.23;;;1.10;99.90;;;;;;5287441;28;20040;-78
2022/01/12 07:49:45;;;;;;;22.67;10.30;;;1.10;99.90;;;;;;5292390;28;20027;-77
2022/01/12 07:52:16;;;;;;;43.30;16.90;;;1.10;99.90;;;;;;5291566;28;20050;-77
2022/01/12 07:54:47;;;;;;;71.00;30.15;;;1.20;99.90;;;;;;5290367;28;20056;-78
2022/01/12 07:57:18;;;;;;;36.40;13.90;;;1.10;99.90;;;;;;5291473;28;20040;-78
2022/01/12 07:59:49;;;;;;;64.63;31.27;;;1.10;99.90;;;;;;5292853;28;20019;-77
2022/01/12 08:02:21;;;;;;;36.55;15.98;;;1.00;99.90;;;;;;5291546;28;20364;-77
2022/01/12 08:04:53;;;;;;;79.93;39.30;;;1.10;99.90;;;;;;5292610;28;20023;-77
2022/01/12 08:07:23;;;;;;;37.53;15.98;;;1.00;99.90;;;;;;5292146;28;20047;-77
2022/01/12 08:09:55;;;;;;;29.25;13.20;;;1.10;99.90;;;;;;5290713;28;20028;-77
2022/01/12 08:12:25;;;;;;;24.20;13.02;;;1.00;99.90;;;;;;5292251;28;20027;-77
2022/01/12 08:14:56;;;;;;;24.08;11.30;;;1.10;99.90;;;;;;5292518;28;20481;-77
2022/01/12 08:17:27;;;;;;;25.40;9.85;;;1.10;99.90;;;;;;5292139;28;20386;-77
2022/01/12 08:20:00;;;;;;;17.95;9.00;;;1.20;99.90;;;;;;5292399;28;20476;-77
2022/01/12 08:22:31;;;;;;;22.60;8.00;;;1.00;99.90;;;;;;5292328;28;20378;-76
2022/01/12 08:25:02;;;;;;;22.00;7.78;;;1.10;99.90;;;;;;5292245;28;20031;-76
2022/01/12 08:27:33;;;;;;;14.25;5.78;;;1.00;99.90;;;;;;5291019;28;20024;-77
2022/01/12 08:30:06;;;;;;;15.02;6.80;;;1.20;99.90;;;;;;5292324;28;20575;-79
2022/01/12 08:32:37;;;;;;;24.27;6.45;;;1.00;99.90;;;;;;5290966;28;20035;-77
2022/01/12 08:35:08;;;;;;;18.42;5.95;;;1.00;99.90;;;;;;5292163;28;20069;-77
2022/01/12 08:37:39;;;;;;;24.58;6.43;;;1.10;99.90;;;;;;5290675;28;20032;-77
2022/01/12 08:40:11;;;;;;;15.70;5.93;;;1.20;99.90;;;;;;5291912;28;20016;-77
2022/01/12 08:42:42;;;;;;;18.13;5.45;;;1.10;99.90;;;;;;5291997;28;20466;-78
2022/01/12 08:45:14;;;;;;;18.13;6.32;;;1.10;99.90;;;;;;5291732;28;20108;-77
2022/01/12 08:47:45;;;;;;;18.63;4.90;;;1.00;99.90;;;;;;5291389;28;20168;-77
2022/01/12 08:50:16;;;;;;;16.65;6.75;;;1.30;99.90;;;;;;5291868;28;20098;-77
2022/01/12 08:52:48;;;;;;;14.60;5.45;;;1.10;99.90;;;;;;5290669;28;20027;-76
2022/01/12 08:55:22;;;;;;;15.77;5.05;;;1.20;99.90;;;;;;5291804;28;20058;-77
2022/01/12 08:57:53;;;;;;;36.78;17.33;;;1.20;99.90;;;;;;5280104;28;20035;-78
2022/01/12 09:00:24;;;;;;;38.78;19.13;;;1.10;99.90;;;;;;5280501;28;20016;-79
2022/01/12 09:02:55;;;;;;;20.95;9.52;;;1.10;99.90;;;;;;5279916;28;20375;-76
2022/01/12 09:05:26;;;;;;;21.25;7.70;;;1.20;99.90;;;;;;5279421;28;20032;-76
2022/01/12 09:07:57;;;;;;;31.75;14.45;;;1.20;99.90;;;;;;5280144;28;20382;-77
2022/01/12 09:10:28;;;;;;;28.77;12.82;;;1.30;99.90;;;;;;5278738;28;20027;-79
2022/01/12 09:12:59;;;;;;;31.02;12.30;;;1.20;99.90;;;;;;5279785;28;20023;-78
2022/01/12 09:15:30;;;;;;;20.92;6.65;;;1.20;99.90;;;;;;5279375;28;20031;-79
2022/01/12 09:18:01;;;;;;;18.00;6.13;;;1.10;99.90;;;;;;5276354;28;20044;-77
2022/01/12 09:20:32;;;;;;;13.20;6.03;;;1.30;99.90;;;;;;5280571;28;20008;-76
2022/01/12 09:23:04;;;;;;;23.77;8.13;;;1.10;99.90;;;;;;5280442;28;20098;-78
2022/01/12 09:25:39;;;;;;;23.63;8.82;;;1.20;99.90;;;;;;5279518;28;20421;-78
2022/01/12 09:28:48;;;;;;;14.07;5.22;;;1.20;99.90;;;;;;5405004;22;22045;-74
2022/01/12 09:31:19;;;;;;;14.20;4.65;;;1.10;99.90;;;;;;5241212;28;20098;-73
2022/01/12 09:33:50;;;;;;;19.35;5.68;;;1.20;99.90;;;;;;5249085;28;20029;-76
2022/01/12 09:36:22;;;;;;;13.50;4.32;;;1.10;99.90;;;;;;5247874;28;20024;-74
2022/01/12 09:38:54;;;;;;;13.88;4.82;;;1.20;99.90;;;;;;5248845;28;20118;-74
2022/01/12 09:41:26;;;;;;;10.63;4.13;;;1.10;99.90;;;;;;5249237;28;20016;-75
2022/01/12 09:43:57;;;;;;;18.00;7.40;;;1.10;99.90;;;;;;5248982;28;20043;-75
2022/01/12 09:46:29;;;;;;;17.40;5.10;;;1.10;99.90;;;;;;5248712;28;20443;-73
2022/01/12 09:49:01;;;;;;;15.48;4.68;;;1.10;99.90;;;;;;5247169;28;20510;-72
2022/01/12 09:51:32;;;;;;;19.15;7.90;;;1.10;99.90;;;;;;5248541;28;20024;-72
2022/01/12 09:54:04;;;;;;;17.08;5.72;;;1.10;99.90;;;;;;5248357;28;20028;-72
2022/01/12 09:56:34;;;;;;;20.67;6.85;;;1.10;99.90;;;;;;5248048;28;20025;-73
2022/01/12 09:59:05;;;;;;;16.23;6.63;;;1.10;99.90;;;;;;5262487;28;20563;-73
2022/01/12 10:01:40;;;;;;;10.85;5.28;;;1.00;99.90;;;;;;5269301;28;20032;-71
2022/01/12 10:04:21;;;;;;;14.02;5.30;;;1.10;99.90;;;;;;5269314;28;20024;-73
2022/01/12 10:06:59;;;;;;;19.05;7.22;;;1.10;99.90;;;;;;5269295;28;20032;-74
2022/01/12 10:09:44;;;;;;;9.75;4.47;;;0.90;99.90;;;;;;5269223;28;20031;-73
2022/01/12 10:12:17;;;;;;;12.85;4.53;;;1.00;99.90;;;;;;5268885;28;20036;-74
2022/01/12 10:14:55;;;;;;;13.70;5.82;;;1.10;99.90;;;;;;5269086;28;20020;-74
2022/01/12 10:17:46;;;;;;;12.60;4.88;;;1.00;99.90;;;;;;5268043;28;20505;-74
2022/01/12 10:20:21;;;;;;;11.68;4.78;;;1.00;99.90;;;;;;5269127;28;20024;-73
2022/01/12 10:23:09;;;;;;;20.00;3.80;;;1.00;99.90;;;;;;5269202;28;20123;-74
2022/01/12 10:25:45;;;;;;;10.82;4.72;;;0.70;99.90;;;;;;5269088;28;20032;-74
2022/01/12 10:28:19;;;;;;;14.30;5.28;;;0.70;99.90;;;;;;5267759;28;20060;-74
2022/01/12 10:30:59;;;;;;;14.10;4.93;;;0.80;99.90;;;;;;5306046;27;20513;-74
2022/01/12 10:33:31;;;;;;;;;;;0.80;99.90;;;;;;5312024;27;20423;-73
2022/01/12 10:36:06;;;;;;;14.35;5.13;;;0.90;99.90;;;;;;5311321;28;19903;-74
2022/01/12 10:38:37;;;;;;;10.73;4.70;;;0.70;99.90;;;;;;5311239;28;20023;-75
2022/01/12 10:41:08;;;;;;;10.50;5.03;;;0.80;99.90;;;;;;5311325;28;20031;-75
2022/01/12 10:43:41;;;;;;;17.17;6.65;;;1.00;99.90;;;;;;5311142;28;20030;-73
2022/01/12 10:46:17;;;;;;;9.95;4.10;;;0.80;99.90;;;;;;5311092;28;20095;-75
2022/01/12 10:48:51;;;;;;;12.60;4.35;;;0.90;99.90;;;;;;5311200;28;20343;-74
2022/01/12 10:51:26;;;;;;;15.07;4.40;;;0.80;99.90;;;;;;5311229;28;20110;-73
2022/01/12 10:54:05;;;;;;;17.02;4.90;;;0.90;99.90;;;;;;5311071;28;20046;-73
2022/01/12 10:56:36;;;;;;;9.60;4.60;;;0.80;99.90;;;;;;5289825;28;20034;-74
2022/01/12 10:59:14;;;;;;;14.60;4.78;;;0.90;99.90;;;;;;5289609;28;20036;-74
2022/01/12 11:01:45;;;;;;;19.77;5.07;;;0.80;99.90;;;;;;5289714;28;20051;-74
2022/01/12 11:04:17;;;;;;;10.77;5.13;;;0.80;99.90;;;;;;5290175;28;20470;-73
2022/01/12 11:06:48;;;;;;;16.45;5.30;;;0.70;99.90;;;;;;5290341;28;20185;-73
2022/01/12 11:09:19;;;;;;;12.55;4.82;;;0.70;99.90;;;;;;5290039;28;20111;-74
2022/01/12 11:11:50;;;;;;;10.40;4.93;;;0.70;99.90;;;;;;5290633;28;20031;-74
2022/01/12 11:14:21;;;;;;;14.65;6.10;;;0.90;99.90;;;;;;5289916;28;20026;-74
2022/01/12 11:16:52;;;;;;;15.75;4.40;;;0.60;99.90;;;;;;5290463;28;20074;-75
2022/01/12 11:19:23;;;;;;;15.07;4.38;;;0.70;99.90;;;;;;5289903;28;20024;-74
2022/01/12 11:22:24;;;;;;;13.77;7.38;;;0.70;99.90;;;;;;5290284;28;20377;-73
2022/01/12 11:24:55;;;;;;;12.75;7.35;;;0.80;99.90;;;;;;5292884;28;20035;-74
2022/01/12 11:27:26;;;;;;;15.43;9.57;;;0.70;99.90;;;;;;5293703;28;20019;-74
2022/01/12 11:29:59;;;;;;;10.70;5.43;;;0.80;99.90;;;;;;5293632;28;20523;-73
2022/01/12 11:32:29;;;;;;;13.10;4.57;;;0.80;99.90;;;;;;5294303;28;20103;-73
2022/01/12 11:35:03;;;;;;;12.23;4.60;;;0.80;99.90;;;;;;5293658;28;20567;-75
2022/01/12 11:37:33;;;;;;;17.33;4.80;;;0.80;99.90;;;;;;5293954;28;20027;-74
2022/01/12 11:40:08;;;;;;;10.45;4.22;;;0.80;99.90;;;;;;5293896;28;20024;-74
2022/01/12 11:42:39;;;;;;;10.02;4.07;;;0.70;99.90;;;;;;5293563;28;20032;-74
2022/01/12 11:45:19;;;;;;;24.73;4.68;;;0.80;99.90;;;;;;5293601;28;20027;-74
2022/01/12 11:47:51;;;;;;;17.13;4.63;;;0.70;99.90;;;;;;5293523;28;20466;-74
2022/01/12 11:50:22;;;;;;;9.60;3.95;;;0.70;99.90;;;;;;5275176;28;20024;-75
2022/01/12 11:52:54;;;;;;;12.32;4.55;;;0.60;99.90;;;;;;5293536;28;20031;-76
2022/01/12 11:55:34;;;;;;;11.98;4.38;;;0.70;99.90;;;;;;5293757;28;20081;-74
2022/01/12 11:58:16;;;;;;;8.80;3.42;;;0.80;99.90;;;;;;5293525;28;20051;-74
2022/01/12 12:00:50;;;;;;;15.23;6.15;;;0.70;99.90;;;;;;5293336;28;20018;-73
2022/01/12 12:03:25;;;;;;;13.27;5.38;;;0.70;99.90;;;;;;5293478;28;20424;-77
2022/01/12 12:05:56;;;;;;;12.40;4.80;;;0.90;99.90;;;;;;5293052;28;20011;-77
2022/01/12 12:08:28;;;;;;;10.70;5.20;;;0.60;99.90;;;;;;5293399;28;20038;-74
2022/01/12 12:10:59;;;;;;;8.50;4.13;;;0.60;99.90;;;;;;5293014;28;20042;-74
2022/01/12 12:13:30;;;;;;;6.72;2.95;;;0.60;99.90;;;;;;5292769;28;20070;-74
2022/01/12 12:16:01;;;;;;;7.00;3.35;;;0.60;99.90;;;;;;5274595;28;20043;-75
2022/01/12 12:18:33;;;;;;;11.32;4.50;;;0.60;99.90;;;;;;5274739;28;20036;-75
2022/01/12 12:21:05;;;;;;;10.85;4.30;;;0.50;99.90;;;;;;5293469;28;20117;-75
2022/01/12 12:23:36;;;;;;;13.05;4.13;;;0.40;99.90;;;;;;5293072;28;20111;-74
2022/01/12 12:26:10;;;;;;;14.90;5.28;;;0.60;99.90;;;;;;5293103;28;20415;-74
2022/01/12 12:28:47;;;;;;;14.45;5.28;;;0.50;99.90;;;;;;5292277;28;20087;-74
2022/01/12 12:31:24;;;;;;;8.82;4.43;;;0.60;99.90;;;;;;5292814;28;20043;-75
2022/01/12 12:34:05;;;;;;;10.75;4.70;;;0.40;99.90;;;;;;5292776;28;20378;-76
2022/01/12 12:36:36;;;;;;;10.18;4.45;;;0.40;99.90;;;;;;5292401;28;20482;-75
2022/01/12 12:39:13;;;;;;;10.90;4.47;;;0.10;99.90;;;;;;5292732;28;20032;-75
2022/01/12 12:41:46;;;;;;;9.60;4.25;;;0.60;99.90;;;;;;5292529;28;20076;-76
2022/01/12 12:44:27;;;;;;;10.57;4.75;;;0.40;99.90;;;;;;5292475;28;20032;-77
2022/01/12 12:47:08;;;;;;;11.38;4.93;;;0.50;99.90;;;;;;5292625;28;20024;-76
2022/01/12 12:49:57;;;;;;;9.52;4.40;;;0.50;99.90;;;;;;5292336;28;20067;-77
2022/01/12 12:52:34;;;;;;;11.00;4.47;;;0.60;99.90;;;;;;5274006;28;20470;-76
2022/01/12 12:55:14;;;;;;;8.77;4.57;;;0.50;99.90;;;;;;5292423;28;20411;-76
2022/01/12 12:57:48;;;;;;;15.20;4.60;;;0.50;99.90;;;;;;5292109;28;20036;-76
2022/01/12 13:00:25;;;;;;;6.95;3.65;;;0.60;99.90;;;;;;5292361;28;20066;-76
2022/01/12 13:02:58;;;;;;;9.05;4.63;;;0.50;99.90;;;;;;5273734;28;20126;-74
2022/01/12 13:05:35;;;;;;;10.43;4.47;;;0.50;99.90;;;;;;5291924;28;20019;-76
2022/01/12 13:08:07;;;;;;;13.23;5.07;;;0.30;99.90;;;;;;5292125;28;20032;-75
2022/01/12 13:10:39;;;;;;;13.93;5.30;;;0.60;99.90;;;;;;5291796;28;20034;-74
2022/01/12 13:13:12;;;;;;;13.55;5.90;;;0.50;99.90;;;;;;5291938;28;20051;-73
2022/01/12 13:15:45;;;;;;;9.98;5.25;;;0.40;99.90;;;;;;5291856;28;20103;-73
2022/01/12 13:18:21;;;;;;;13.82;5.07;;;0.50;99.90;;;;;;5291719;28;20092;-73
2022/01/12 13:21:07;;;;;;;13.23;7.43;;;0.50;99.90;;;;;;5292036;28;20102;-74
2022/01/12 13:23:39;;;;;;;11.88;5.28;;;0.10;99.90;;;;;;5292120;28;20027;-73
2022/01/12 13:26:15;;;;;;;14.25;5.22;;;0.30;99.90;;;;;;5291526;28;20048;-75
2022/01/12 13:28:47;;;;;;;13.40;6.68;;;0.50;99.90;;;;;;5291348;28;20039;-73
2022/01/12 13:31:21;;;;;;;13.65;6.22;;;0.40;99.90;;;;;;5291972;28;20023;-72
2022/01/12 13:33:53;;;;;;;11.40;5.57;;;0.50;99.90;;;;;;5291834;28;20094;-73
2022/01/12 13:36:26;;;;;;;9.13;4.07;;;0.30;99.90;;;;;;5291483;28;20027;-74
2022/01/12 13:39:07;;;;;;;7.53;4.20;;;0.50;99.90;;;;;;5291181;28;20060;-73
2022/01/12 13:41:41;;;;;;;10.95;4.07;;;0.30;99.90;;;;;;5291509;28;20016;-73
2022/01/12 13:44:16;;;;;;;11.93;5.50;;;0.40;99.90;;;;;;5291280;28;20110;-73
2022/01/12 13:47:33;;;;;;;8.30;4.43;;;0.20;99.90;;;;;;5291012;28;20070;-73
2022/01/12 13:50:06;;;;;;;14.20;5.60;;;0.20;99.90;;;;;;5290410;28;20040;-74
2022/01/12 13:52:37;;;;;;;12.68;4.45;;;0.30;99.90;;;;;;5291316;28;20462;-73
2022/01/12 13:55:13;;;;;;;9.90;4.78;;;0.40;99.90;;;;;;5291610;28;20019;-74
2022/01/12 13:57:44;;;;;;;7.88;4.15;;;0.30;99.90;;;;;;5272672;28;20533;-73
2022/01/12 14:03:21;;;;;;;9.07;4.65;;;0.30;99.90;;;;;;5518710;22;20049;-73
2022/01/12 14:05:58;;;;;;;12.50;4.70;;;0.30;99.90;;;;;;5207181;28;20116;-74
2022/01/12 14:08:40;;;;;;;9.27;4.97;;;0.20;99.90;;;;;;5207516;28;20026;-74
2022/01/12 14:11:11;;;;;;;10.82;4.10;;;0.30;99.90;;;;;;5207755;28;20021;-74
2022/01/12 14:13:42;;;;;;;7.80;4.55;;;0.30;99.90;;;;;;5208165;28;20032;-75
2022/01/12 14:16:14;;;;;;;11.75;4.40;;;0.30;99.90;;;;;;5207339;28;20025;-73
2022/01/12 14:18:45;;;;;;;12.82;4.82;;;0.40;99.90;;;;;;5189466;28;20484;-73
2022/01/12 14:21:20;;;;;;;27.25;14.32;;;0.20;99.90;;;;;;5207238;28;20028;-74
2022/01/12 14:23:51;;;;;;;19.70;10.55;;;0.40;99.90;;;;;;5207357;28;20108;-72
2022/01/12 14:26:24;;;;;;;9.27;4.57;;;0.30;99.90;;;;;;5207978;28;20109;-73
2022/01/12 14:28:56;;;;;;;10.73;4.28;;;0.30;99.90;;;;;;5207464;28;20029;-74
2022/01/12 14:31:27;;;;;;;11.90;5.50;;;0.30;99.90;;;;;;5207754;28;20420;-73
2022/01/12 14:33:59;;;;;;;10.80;4.90;;;0.20;99.90;;;;;;5207059;28;20148;-73
2022/01/12 14:36:31;;;;;;;11.98;5.65;;;0.30;99.90;;;;;;5207424;28;20108;-74
2022/01/12 14:39:03;;;;;;;16.63;6.22;;;0.30;99.90;;;;;;5189357;28;20072;-74
2022/01/12 14:41:36;;;;;;;10.85;4.68;;;0.40;99.90;;;;;;5207010;28;20053;-75
2022/01/12 14:44:07;;;;;;;6.45;3.15;;;0.50;99.90;;;;;;5207310;28;20469;-73
2022/01/12 14:46:38;;;;;;;10.45;4.63;;;0.30;99.90;;;;;;5189739;28;20079;-75
2022/01/12 14:49:09;;;;;;;15.55;5.38;;;0.40;99.90;;;;;;5207566;28;20068;-73
2022/01/12 14:51:40;;;;;;;14.43;6.97;;;0.40;99.90;;;;;;5206764;28;20546;-76
2022/01/12 14:54:10;;;;;;;11.45;6.80;;;0.60;99.90;;;;;;5206578;28;20030;-73
2022/01/12 14:56:41;;;;;;;13.05;6.95;;;0.20;99.90;;;;;;5206485;28;20025;-73
2022/01/12 14:59:12;;;;;;;11.98;6.47;;;0.30;99.90;;;;;;5208127;28;20028;-72
2022/01/12 15:01:43;;;;;;;11.23;4.35;;;0.30;99.90;;;;;;5211255;28;20030;-71
2022/01/12 15:04:14;;;;;;;9.45;3.80;;;0.20;99.90;;;;;;5211100;28;20045;-73
2022/01/12 15:06:45;;;;;;;7.22;4.53;;;0.40;99.90;;;;;;5211479;28;20104;-71
2022/01/12 15:09:15;;;;;;;18.75;10.82;;;0.30;99.90;;;;;;5211409;28;20443;-73
2022/01/12 15:11:49;;;;;;;18.85;10.77;;;0.30;99.90;;;;;;5211139;28;20022;-73
2022/01/12 15:16:54;;;;;;;10.60;5.50;;;0.30;99.90;;;;;;5210608;28;20067;-73
2022/01/12 15:19:24;;;;;;;7.95;4.28;;;0.30;99.90;;;;;;5210076;28;20053;-73
2022/01/12 15:21:55;;;;;;;7.88;2.78;;;0.40;99.90;;;;;;5210423;28;20448;-72
2022/01/12 15:24:27;;;;;;;11.95;4.18;;;0.30;99.90;;;;;;5210061;28;20499;-73
2022/01/12 15:26:58;;;;;;;10.90;2.78;;;0.40;99.90;;;;;;5209177;28;20018;-73
2022/01/12 15:29:29;;;;;;;8.98;2.90;;;0.30;99.90;;;;;;5209331;28;20025;-73
2022/01/12 15:32:00;;;;;;;15.68;2.60;;;0.20;99.90;;;;;;5209825;28;20461;-73
2022/01/12 15:34:31;;;;;;;5.38;2.80;;;0.30;99.90;;;;;;5209920;28;20026;-72
2022/01/12 15:37:05;;;;;;;12.90;2.88;;;0.10;99.90;;;;;;5209951;28;20017;-72
2022/01/12 15:39:36;;;;;;;6.53;3.30;;;0.40;99.90;;;;;;5209799;28;20033;-72
2022/01/12 15:42:07;;;;;;;8.98;3.40;;;0.20;99.90;;;;;;5209883;28;20021;-72
2022/01/12 15:44:41;;;;;;;11.40;3.53;;;0.10;99.90;;;;;;5209755;28;20036;-73
2022/01/12 15:47:13;;;;;;;4.55;2.45;;;0.10;99.90;;;;;;5208601;28;20068;-72
2022/01/12 15:49:44;;;;;;;6.78;2.53;;;0.10;99.90;;;;;;5209851;28;20489;-72
2022/01/12 15:52:15;;;;;;;8.15;2.92;;;0.10;99.90;;;;;;5209640;28;20060;-72
2022/01/12 15:54:46;;;;;;;7.75;3.10;;;0.20;99.90;;;;;;5209577;28;20040;-71
2022/01/12 15:57:18;;;;;;;18.23;3.42;;;0.10;99.90;;;;;;5209666;28;20032;-72
2022/01/12 15:59:49;;;;;;;9.88;3.78;;;0.10;99.90;;;;;;5209746;28;20029;-72
2022/01/12 16:02:20;;;;;;;6.35;3.20;;;-0.10;99.90;;;;;;5208996;28;20041;-72
2022/01/12 16:04:51;;;;;;;13.25;3.70;;;-0.20;99.90;;;;;;5209410;28;20075;-72
2022/01/12 16:07:24;;;;;;;8.13;3.53;;;0.00;99.90;;;;;;5209334;28;20025;-73
2022/01/12 16:09:55;;;;;;;7.85;3.67;;;-0.20;99.90;;;;;;5208941;28;20030;-72
2022/01/12 16:12:25;;;;;;;6.82;3.25;;;-0.20;99.90;;;;;;5209151;28;20025;-72
2022/01/12 16:14:56;;;;;;;9.15;3.15;;;-0.10;99.90;;;;;;5209294;28;20045;-72
2022/01/12 16:17:27;;;;;;;9.98;3.25;;;-0.20;99.90;;;;;;5209248;28;20381;-72
2022/01/12 16:19:59;;;;;;;7.43;2.83;;;-0.20;99.90;;;;;;5209312;28;20025;-72
2022/01/12 16:22:29;;;;;;;79.95;33.78;;;-0.20;99.90;;;;;;5209076;28;20527;-72
2022/01/12 16:25:02;;;;;;;32.47;14.02;;;-0.20;99.90;;;;;;5208992;28;20044;-71
2022/01/12 16:27:33;;;;;;;41.38;17.90;;;-0.30;99.90;;;;;;5208989;28;20041;-71
2022/01/12 16:30:10;;;;;;;59.42;26.05;;;-0.10;99.90;;;;;;5208987;28;20047;-71
2022/01/12 16:32:41;;;;;;;28.63;11.93;;;-0.20;99.90;;;;;;5208762;28;20025;-71
2022/01/12 16:35:12;;;;;;;100.50;40.25;;;-0.20;99.90;;;;;;5208739;28;20029;-71
2022/01/12 16:37:43;;;;;;;44.97;20.33;;;-0.20;99.90;;;;;;5208707;28;20044;-71
2022/01/12 16:40:14;;;;;;;19.80;7.00;;;-0.30;99.90;;;;;;5208939;28;20025;-71
2022/01/12 16:42:45;;;;;;;44.40;19.88;;;-0.10;99.90;;;;;;5208816;28;20489;-71
2022/01/12 16:45:16;;;;;;;14.77;6.90;;;-0.20;99.90;;;;;;5208668;28;20053;-72
2022/01/12 16:47:47;;;;;;;14.32;7.25;;;-0.10;99.90;;;;;;5208604;28;20032;-71
2022/01/12 16:50:18;;;;;;;8.15;3.20;;;-0.10;99.90;;;;;;5208825;28;20032;-72
2022/01/12 16:52:48;;;;;;;7.55;3.10;;;0.00;99.90;;;;;;5208368;28;20025;-71
2022/01/12 16:55:19;;;;;;;8.52;3.45;;;0.10;99.90;;;;;;5208476;28;20088;-71
2022/01/12 16:57:50;;;;;;;6.35;2.92;;;0.00;99.90;;;;;;5208201;28;20113;-72
2022/01/12 17:00:21;;;;;;;8.82;3.60;;;0.10;99.90;;;;;;5208280;28;20060;-71
2022/01/12 17:02:52;;;;;;;9.20;3.97;;;0.00;99.90;;;;;;5189954;28;20073;-71
2022/01/12 17:05:23;;;;;;;5.90;3.00;;;0.20;99.90;;;;;;5208192;28;20060;-71
2022/01/12 17:07:54;;;;;;;6.53;3.70;;;0.10;99.90;;;;;;5190481;28;20030;-71
2022/01/12 17:10:25;;;;;;;12.05;3.63;;;0.10;99.90;;;;;;5206815;28;20483;-72
2022/01/12 17:12:56;;;;;;;8.50;3.63;;;0.20;99.90;;;;;;5207986;28;20014;-71
2022/01/12 17:15:47;;;;;;;10.23;4.03;;;0.00;99.90;;;;;;5208015;28;20025;-72